Terminal Aerodrome Forecast
Issued by NWS

Home | Current Version | Previous Version | Text Only | Print | Product List | Glossary Off
Versions: 1 2 3 4 5 6 7 8 9 10 11 12 13 14 15 16 17

129
FTUS43 KICT 180533
TAFCNU
TAF
KCNU 180533Z 1806/1906 20015G23KT P6SM SCT200
     FM180900 26014KT P6SM BKN120
     FM181100 32018G27KT P6SM BKN015
     FM181400 33024G34KT P6SM BKN015
     FM181700 33026G35KT P6SM SCT030
     FM190000 31012KT P6SM SKC=

USA.gov is the U.S. government's official web portal to all federal, state and local government web resources and services.